Mc Clellan-Palomar Airport
KCRQ : rendu visible

Aérodrome :











RETROUVEZ-NOUS SUR...

 
LOGIN :

S'inscrire | Disclaimer

   EN    FR    IT 

 









Légende :    VFR   VFR Marginal   IFR   IFR Intensif   IFR Très Intensif
Visi : 
Plafond : 
>= 8 km
>= 3000ft
5 à 8 km
1000 à 3000 ft
1500m à 5 km
500 à 1000 ft
800 à 1500m
200 à 500 ft
< 800m
< 200 ft
Symboles :   Orages  Brouillard  Fortes neiges  Fortes précipitations  Vent > 20 kt






- Altitude de l'aérodrome : 331 ft


KCRQ - Mc Clellan-Palomar

DERNIER METAR :
  • 200953Z AUTO 00000KT 5SM BR CLR 10/09 A3005 RMK AO2 SLP175 T01000089

METARs EXPIRÉS :
  • 200853Z AUTO 00000KT 5SM BR CLR 11/09 A3006 RMK AO2 SLP177 T01110094 58003
  • 200753Z AUTO 07003KT 5SM BR CLR 11/10 A3007 RMK AO2 SLP181 T01110100 401670111

TAF KCRQ
Valide du 20 à 09h jusqu'au 21 à 06h UTC


200900Z 2009/2106 VRB04KT 4SM BR FEW010
TEMPO 2012/2015 2SM BR BKN005
FM201500 VRB04KT P6SM FEW010
FM202100 25007KT P6SM SKC
FM210200 VRB04KT P6SM SKC



MET'MAP, la Météo Aéronautique d'un coup d'oeil ! - Copyright ORBIFLY Décembre 2007 - Disclaimer

ORBIFLY MET'MAP TEAM :

Programmation & Développement : Alexandra Zaïnal
Sur une idée originale de : Baudouin d'Aumeries
Assistance à la programmation : Marc-Olivier Méhu
Soutien technique & logistique : Manuel Goepfert

Contact : metmap@orbifly.com




SOURCES & CREDITS :

   NOAA       Earth
Advisory